sensor_id;sensor_type;location;lat;lon;timestamp;P1;durP1;ratioP1;P2;durP2;ratioP2
15082;SDS011;7640;53.116;6.878;2023-07-31T00:01:07;6.97;;;5.07;;
15082;SDS011;7640;53.116;6.878;2023-07-31T00:03:36;6.33;;;4.87;;
15082;SDS011;7640;53.116;6.878;2023-07-31T00:06:05;6.10;;;4.70;;
15082;SDS011;7640;53.116;6.878;2023-07-31T00:08:33;5.67;;;4.63;;
15082;SDS011;7640;53.116;6.878;2023-07-31T00:11:02;6.87;;;4.77;;
15082;SDS011;7640;53.116;6.878;2023-07-31T00:13:31;6.27;;;4.30;;
15082;SDS011;7640;53.116;6.878;2023-07-31T00:16:01;5.27;;;4.37;;
15082;SDS011;7640;53.116;6.878;2023-07-31T00:18:31;6.30;;;4.33;;
15082;SDS011;7640;53.116;6.878;2023-07-31T00:21:00;8.03;;;4.43;;
15082;SDS011;7640;53.116;6.878;2023-07-31T00:23:28;6.50;;;4.63;;
15082;SDS011;7640;53.116;6.878;2023-07-31T00:25:57;5.83;;;4.23;;
15082;SDS011;7640;53.116;6.878;2023-07-31T00:28:25;5.77;;;3.97;;
15082;SDS011;7640;53.116;6.878;2023-07-31T00:30:55;4.27;;;3.87;;
15082;SDS011;7640;53.116;6.878;2023-07-31T00:33:25;6.53;;;4.47;;
15082;SDS011;7640;53.116;6.878;2023-07-31T00:35:54;7.07;;;4.50;;
15082;SDS011;7640;53.116;6.878;2023-07-31T00:38:23;4.50;;;3.80;;
15082;SDS011;7640;53.116;6.878;2023-07-31T00:40:52;7.33;;;4.60;;
15082;SDS011;7640;53.116;6.878;2023-07-31T00:43:21;5.70;;;4.50;;
15082;SDS011;7640;53.116;6.878;2023-07-31T00:45:50;6.97;;;4.97;;
15082;SDS011;7640;53.116;6.878;2023-07-31T00:48:18;5.40;;;4.30;;
15082;SDS011;7640;53.116;6.878;2023-07-31T00:50:49;7.50;;;4.50;;
15082;SDS011;7640;53.116;6.878;2023-07-31T00:53:18;5.80;;;4.57;;
15082;SDS011;7640;53.116;6.878;2023-07-31T00:55:47;6.80;;;4.70;;
15082;SDS011;7640;53.116;6.878;2023-07-31T00:58:16;7.53;;;5.13;;
15082;SDS011;7640;53.116;6.878;2023-07-31T01:00:45;7.97;;;5.47;;
15082;SDS011;7640;53.116;6.878;2023-07-31T01:03:14;7.97;;;5.10;;
15082;SDS011;7640;53.116;6.878;2023-07-31T01:05:46;6.23;;;4.77;;
15082;SDS011;7640;53.116;6.878;2023-07-31T01:08:24;7.13;;;4.97;;
15082;SDS011;7640;53.116;6.878;2023-07-31T01:11:05;5.87;;;4.90;;
15082;SDS011;7640;53.116;6.878;2023-07-31T01:13:39;7.27;;;4.80;;
15082;SDS011;7640;53.116;6.878;2023-07-31T01:16:08;5.27;;;4.60;;
15082;SDS011;7640;53.116;6.878;2023-07-31T01:18:37;7.97;;;5.10;;
15082;SDS011;7640;53.116;6.878;2023-07-31T01:21:12;6.17;;;4.50;;
15082;SDS011;7640;53.116;6.878;2023-07-31T01:24:15;6.27;;;4.90;;
15082;SDS011;7640;53.116;6.878;2023-07-31T01:26:55;5.47;;;4.67;;
15082;SDS011;7640;53.116;6.878;2023-07-31T01:29:29;5.07;;;4.50;;
15082;SDS011;7640;53.116;6.878;2023-07-31T01:32:05;7.83;;;4.87;;
15082;SDS011;7640;53.116;6.878;2023-07-31T01:34:35;6.40;;;4.80;;
15082;SDS011;7640;53.116;6.878;2023-07-31T01:37:05;5.70;;;4.53;;
15082;SDS011;7640;53.116;6.878;2023-07-31T01:39:34;5.97;;;4.23;;
15082;SDS011;7640;53.116;6.878;2023-07-31T01:42:05;5.37;;;4.50;;
15082;SDS011;7640;53.116;6.878;2023-07-31T01:44:35;7.30;;;4.43;;
15082;SDS011;7640;53.116;6.878;2023-07-31T01:47:03;5.47;;;4.27;;
15082;SDS011;7640;53.116;6.878;2023-07-31T01:49:33;4.67;;;3.60;;
15082;SDS011;7640;53.116;6.878;2023-07-31T01:52:03;4.50;;;3.90;;
15082;SDS011;7640;53.116;6.878;2023-07-31T01:54:37;5.13;;;3.60;;
15082;SDS011;7640;53.116;6.878;2023-07-31T01:57:07;3.50;;;3.20;;
15082;SDS011;7640;53.116;6.878;2023-07-31T01:59:39;4.07;;;3.00;;
15082;SDS011;7640;53.116;6.878;2023-07-31T02:02:08;3.07;;;2.77;;
15082;SDS011;7640;53.116;6.878;2023-07-31T02:04:37;2.87;;;2.57;;
15082;SDS011;7640;53.116;6.878;2023-07-31T02:07:08;3.43;;;2.53;;
15082;SDS011;7640;53.116;6.878;2023-07-31T02:09:43;3.73;;;2.50;;
15082;SDS011;7640;53.116;6.878;2023-07-31T02:12:15;2.70;;;2.40;;
15082;SDS011;7640;53.116;6.878;2023-07-31T02:14:44;3.13;;;2.47;;
15082;SDS011;7640;53.116;6.878;2023-07-31T02:17:13;3.10;;;2.20;;
15082;SDS011;7640;53.116;6.878;2023-07-31T02:19:42;2.53;;;2.20;;
15082;SDS011;7640;53.116;6.878;2023-07-31T02:22:10;2.17;;;1.97;;
15082;SDS011;7640;53.116;6.878;2023-07-31T02:24:40;2.10;;;1.90;;
15082;SDS011;7640;53.116;6.878;2023-07-31T02:27:08;2.30;;;2.07;;
15082;SDS011;7640;53.116;6.878;2023-07-31T02:29:38;3.63;;;2.10;;
15082;SDS011;7640;53.116;6.878;2023-07-31T02:32:07;2.80;;;1.60;;
15082;SDS011;7640;53.116;6.878;2023-07-31T02:34:36;2.03;;;1.70;;
15082;SDS011;7640;53.116;6.878;2023-07-31T02:37:05;1.90;;;1.63;;
15082;SDS011;7640;53.116;6.878;2023-07-31T02:39:33;1.53;;;1.43;;
15082;SDS011;7640;53.116;6.878;2023-07-31T02:42:02;1.50;;;1.40;;
15082;SDS011;7640;53.116;6.878;2023-07-31T02:44:32;1.70;;;1.33;;
15082;SDS011;7640;53.116;6.878;2023-07-31T02:47:05;1.33;;;1.23;;
15082;SDS011;7640;53.116;6.878;2023-07-31T02:49:33;1.27;;;1.13;;
15082;SDS011;7640;53.116;6.878;2023-07-31T02:52:03;1.37;;;1.27;;
15082;SDS011;7640;53.116;6.878;2023-07-31T02:54:32;1.37;;;1.27;;
15082;SDS011;7640;53.116;6.878;2023-07-31T02:57:01;1.57;;;1.40;;
15082;SDS011;7640;53.116;6.878;2023-07-31T02:59:31;1.40;;;1.30;;
15082;SDS011;7640;53.116;6.878;2023-07-31T03:02:00;2.97;;;1.30;;
15082;SDS011;7640;53.116;6.878;2023-07-31T03:04:30;2.00;;;1.27;;
15082;SDS011;7640;53.116;6.878;2023-07-31T03:06:58;2.63;;;1.30;;
15082;SDS011;7640;53.116;6.878;2023-07-31T03:09:28;1.73;;;1.20;;
15082;SDS011;7640;53.116;6.878;2023-07-31T03:11:57;2.10;;;1.50;;
15082;SDS011;7640;53.116;6.878;2023-07-31T03:14:26;1.57;;;1.47;;
15082;SDS011;7640;53.116;6.878;2023-07-31T03:16:56;2.03;;;1.47;;
15082;SDS011;7640;53.116;6.878;2023-07-31T03:19:26;1.83;;;1.70;;
15082;SDS011;7640;53.116;6.878;2023-07-31T03:21:56;2.27;;;1.70;;
15082;SDS011;7640;53.116;6.878;2023-07-31T03:24:25;2.87;;;1.20;;
15082;SDS011;7640;53.116;6.878;2023-07-31T03:26:54;2.13;;;1.57;;
15082;SDS011;7640;53.116;6.878;2023-07-31T03:29:23;2.00;;;1.50;;
15082;SDS011;7640;53.116;6.878;2023-07-31T03:31:52;1.73;;;1.30;;
15082;SDS011;7640;53.116;6.878;2023-07-31T03:34:22;1.70;;;1.47;;
15082;SDS011;7640;53.116;6.878;2023-07-31T03:36:52;1.83;;;1.53;;
15082;SDS011;7640;53.116;6.878;2023-07-31T03:39:23;2.43;;;1.57;;
15082;SDS011;7640;53.116;6.878;2023-07-31T03:41:52;1.47;;;1.30;;
15082;SDS011;7640;53.116;6.878;2023-07-31T03:44:21;1.83;;;1.50;;
15082;SDS011;7640;53.116;6.878;2023-07-31T03:46:50;1.40;;;1.30;;
15082;SDS011;7640;53.116;6.878;2023-07-31T03:49:19;1.60;;;1.50;;
15082;SDS011;7640;53.116;6.878;2023-07-31T03:51:49;1.83;;;1.70;;
15082;SDS011;7640;53.116;6.878;2023-07-31T03:54:18;2.00;;;1.40;;
15082;SDS011;7640;53.116;6.878;2023-07-31T03:56:48;1.60;;;1.50;;
15082;SDS011;7640;53.116;6.878;2023-07-31T03:59:17;1.70;;;1.07;;
15082;SDS011;7640;53.116;6.878;2023-07-31T04:01:45;1.73;;;1.63;;
15082;SDS011;7640;53.116;6.878;2023-07-31T04:04:14;1.50;;;1.40;;
15082;SDS011;7640;53.116;6.878;2023-07-31T04:06:42;1.83;;;1.43;;
15082;SDS011;7640;53.116;6.878;2023-07-31T04:09:11;2.10;;;1.30;;
15082;SDS011;7640;53.116;6.878;2023-07-31T04:11:40;1.40;;;1.30;;
15082;SDS011;7640;53.116;6.878;2023-07-31T04:14:10;1.40;;;1.30;;
15082;SDS011;7640;53.116;6.878;2023-07-31T04:16:38;2.30;;;1.40;;
15082;SDS011;7640;53.116;6.878;2023-07-31T04:19:07;1.30;;;1.20;;
15082;SDS011;7640;53.116;6.878;2023-07-31T04:21:37;1.50;;;1.40;;
15082;SDS011;7640;53.116;6.878;2023-07-31T04:24:05;2.20;;;1.50;;
15082;SDS011;7640;53.116;6.878;2023-07-31T04:26:34;1.50;;;1.40;;
15082;SDS011;7640;53.116;6.878;2023-07-31T04:29:03;1.60;;;1.37;;
15082;SDS011;7640;53.116;6.878;2023-07-31T04:31:34;1.87;;;1.40;;
15082;SDS011;7640;53.116;6.878;2023-07-31T04:34:05;2.07;;;1.70;;
15082;SDS011;7640;53.116;6.878;2023-07-31T04:36:33;1.77;;;1.50;;
15082;SDS011;7640;53.116;6.878;2023-07-31T04:39:03;2.70;;;1.73;;
15082;SDS011;7640;53.116;6.878;2023-07-31T04:41:32;1.80;;;1.50;;
15082;SDS011;7640;53.116;6.878;2023-07-31T04:44:01;1.70;;;1.60;;
15082;SDS011;7640;53.116;6.878;2023-07-31T04:46:30;1.60;;;1.50;;
15082;SDS011;7640;53.116;6.878;2023-07-31T04:48:59;1.67;;;1.40;;
15082;SDS011;7640;53.116;6.878;2023-07-31T04:51:28;2.00;;;1.53;;
15082;SDS011;7640;53.116;6.878;2023-07-31T04:53:57;2.70;;;1.60;;
15082;SDS011;7640;53.116;6.878;2023-07-31T04:56:25;2.37;;;1.60;;
15082;SDS011;7640;53.116;6.878;2023-07-31T04:58:54;1.60;;;1.50;;
15082;SDS011;7640;53.116;6.878;2023-07-31T05:01:41;3.60;;;1.70;;
15082;SDS011;7640;53.116;6.878;2023-07-31T05:04:13;1.93;;;1.53;;
15082;SDS011;7640;53.116;6.878;2023-07-31T05:06:42;2.70;;;1.77;;
15082;SDS011;7640;53.116;6.878;2023-07-31T05:09:11;2.93;;;1.97;;
15082;SDS011;7640;53.116;6.878;2023-07-31T05:11:40;2.10;;;1.90;;
15082;SDS011;7640;53.116;6.878;2023-07-31T05:14:09;1.70;;;1.60;;
15082;SDS011;7640;53.116;6.878;2023-07-31T05:16:38;2.43;;;2.20;;
15082;SDS011;7640;53.116;6.878;2023-07-31T05:19:07;2.50;;;1.87;;
15082;SDS011;7640;53.116;6.878;2023-07-31T05:21:37;2.63;;;2.00;;
15082;SDS011;7640;53.116;6.878;2023-07-31T05:24:06;2.07;;;1.60;;
15082;SDS011;7640;53.116;6.878;2023-07-31T05:26:35;2.43;;;1.97;;
15082;SDS011;7640;53.116;6.878;2023-07-31T05:29:05;2.67;;;2.13;;
15082;SDS011;7640;53.116;6.878;2023-07-31T05:31:33;4.10;;;2.00;;
15082;SDS011;7640;53.116;6.878;2023-07-31T05:34:05;2.17;;;1.97;;
15082;SDS011;7640;53.116;6.878;2023-07-31T05:36:33;4.63;;;2.03;;
15082;SDS011;7640;53.116;6.878;2023-07-31T05:39:05;2.87;;;1.87;;
15082;SDS011;7640;53.116;6.878;2023-07-31T05:41:36;2.87;;;1.73;;
15082;SDS011;7640;53.116;6.878;2023-07-31T05:44:05;1.77;;;1.67;;
15082;SDS011;7640;53.116;6.878;2023-07-31T05:46:33;2.77;;;1.60;;
15082;SDS011;7640;53.116;6.878;2023-07-31T05:49:03;2.30;;;1.53;;
15082;SDS011;7640;53.116;6.878;2023-07-31T05:51:32;2.10;;;1.63;;
15082;SDS011;7640;53.116;6.878;2023-07-31T05:54:00;2.20;;;1.70;;
15082;SDS011;7640;53.116;6.878;2023-07-31T05:56:30;3.17;;;1.77;;
15082;SDS011;7640;53.116;6.878;2023-07-31T05:59:02;2.60;;;2.20;;
15082;SDS011;7640;53.116;6.878;2023-07-31T06:01:31;3.77;;;1.80;;
15082;SDS011;7640;53.116;6.878;2023-07-31T06:04:00;3.70;;;1.80;;
15082;SDS011;7640;53.116;6.878;2023-07-31T06:06:30;2.83;;;1.97;;
15082;SDS011;7640;53.116;6.878;2023-07-31T06:08:58;3.57;;;2.30;;
15082;SDS011;7640;53.116;6.878;2023-07-31T06:11:27;3.10;;;2.10;;
15082;SDS011;7640;53.116;6.878;2023-07-31T06:13:57;4.23;;;2.50;;
15082;SDS011;7640;53.116;6.878;2023-07-31T06:16:25;3.90;;;2.27;;
15082;SDS011;7640;53.116;6.878;2023-07-31T06:18:54;4.40;;;2.67;;
15082;SDS011;7640;53.116;6.878;2023-07-31T06:21:23;4.77;;;2.70;;
15082;SDS011;7640;53.116;6.878;2023-07-31T06:23:52;4.83;;;2.67;;
15082;SDS011;7640;53.116;6.878;2023-07-31T06:26:21;6.77;;;3.40;;
15082;SDS011;7640;53.116;6.878;2023-07-31T06:28:50;6.57;;;3.77;;
15082;SDS011;7640;53.116;6.878;2023-07-31T06:31:20;10.57;;;4.47;;
15082;SDS011;7640;53.116;6.878;2023-07-31T06:33:49;11.57;;;5.33;;
15082;SDS011;7640;53.116;6.878;2023-07-31T06:36:20;15.63;;;6.97;;
15082;SDS011;7640;53.116;6.878;2023-07-31T06:38:49;17.97;;;7.03;;
15082;SDS011;7640;53.116;6.878;2023-07-31T06:41:18;16.93;;;8.10;;
15082;SDS011;7640;53.116;6.878;2023-07-31T06:43:46;23.93;;;8.80;;
15082;SDS011;7640;53.116;6.878;2023-07-31T06:46:14;15.30;;;8.53;;
15082;SDS011;7640;53.116;6.878;2023-07-31T06:48:44;21.87;;;8.60;;
15082;SDS011;7640;53.116;6.878;2023-07-31T06:51:13;25.57;;;9.97;;
15082;SDS011;7640;53.116;6.878;2023-07-31T06:53:41;24.50;;;9.90;;
15082;SDS011;7640;53.116;6.878;2023-07-31T06:56:11;20.83;;;9.63;;
15082;SDS011;7640;53.116;6.878;2023-07-31T06:58:40;19.93;;;7.93;;
15082;SDS011;7640;53.116;6.878;2023-07-31T07:01:09;21.30;;;9.77;;
15082;SDS011;7640;53.116;6.878;2023-07-31T07:03:37;22.53;;;9.10;;
15082;SDS011;7640;53.116;6.878;2023-07-31T07:06:07;19.67;;;9.53;;
15082;SDS011;7640;53.116;6.878;2023-07-31T07:08:36;19.27;;;8.93;;
15082;SDS011;7640;53.116;6.878;2023-07-31T07:11:05;25.40;;;9.30;;
15082;SDS011;7640;53.116;6.878;2023-07-31T07:13:33;20.87;;;8.87;;
15082;SDS011;7640;53.116;6.878;2023-07-31T07:16:05;22.40;;;9.90;;
15082;SDS011;7640;53.116;6.878;2023-07-31T07:18:33;25.47;;;8.60;;
15082;SDS011;7640;53.116;6.878;2023-07-31T07:21:08;20.20;;;7.90;;
15082;SDS011;7640;53.116;6.878;2023-07-31T07:23:40;18.33;;;8.47;;
15082;SDS011;7640;53.116;6.878;2023-07-31T07:26:09;18.60;;;8.70;;
15082;SDS011;7640;53.116;6.878;2023-07-31T07:28:37;20.60;;;8.47;;
15082;SDS011;7640;53.116;6.878;2023-07-31T07:31:06;21.30;;;8.53;;
15082;SDS011;7640;53.116;6.878;2023-07-31T07:33:35;21.83;;;10.00;;
15082;SDS011;7640;53.116;6.878;2023-07-31T07:36:04;21.93;;;9.60;;
15082;SDS011;7640;53.116;6.878;2023-07-31T07:38:37;24.07;;;9.17;;
15082;SDS011;7640;53.116;6.878;2023-07-31T07:41:06;19.90;;;9.03;;
15082;SDS011;7640;53.116;6.878;2023-07-31T07:43:34;18.10;;;8.70;;
15082;SDS011;7640;53.116;6.878;2023-07-31T07:46:03;21.57;;;9.40;;
15082;SDS011;7640;53.116;6.878;2023-07-31T07:48:32;13.90;;;7.80;;
15082;SDS011;7640;53.116;6.878;2023-07-31T07:51:01;14.97;;;6.97;;
15082;SDS011;7640;53.116;6.878;2023-07-31T07:53:30;13.67;;;7.40;;
15082;SDS011;7640;53.116;6.878;2023-07-31T07:56:00;10.53;;;6.00;;
15082;SDS011;7640;53.116;6.878;2023-07-31T07:58:28;11.40;;;6.70;;
15082;SDS011;7640;53.116;6.878;2023-07-31T08:00:57;12.90;;;6.27;;
15082;SDS011;7640;53.116;6.878;2023-07-31T08:03:26;8.97;;;5.93;;
15082;SDS011;7640;53.116;6.878;2023-07-31T08:05:57;11.43;;;5.87;;
15082;SDS011;7640;53.116;6.878;2023-07-31T08:08:26;9.40;;;5.30;;
15082;SDS011;7640;53.116;6.878;2023-07-31T08:10:55;7.00;;;4.60;;
15082;SDS011;7640;53.116;6.878;2023-07-31T08:13:25;7.97;;;5.27;;
15082;SDS011;7640;53.116;6.878;2023-07-31T08:15:54;8.93;;;5.37;;
15082;SDS011;7640;53.116;6.878;2023-07-31T08:18:22;7.63;;;5.33;;
15082;SDS011;7640;53.116;6.878;2023-07-31T08:20:51;8.93;;;5.47;;
15082;SDS011;7640;53.116;6.878;2023-07-31T08:23:23;10.27;;;5.30;;
15082;SDS011;7640;53.116;6.878;2023-07-31T08:25:52;8.70;;;5.17;;
15082;SDS011;7640;53.116;6.878;2023-07-31T08:28:20;8.30;;;5.37;;
15082;SDS011;7640;53.116;6.878;2023-07-31T08:30:50;7.73;;;5.07;;
15082;SDS011;7640;53.116;6.878;2023-07-31T08:33:19;7.47;;;4.93;;
15082;SDS011;7640;53.116;6.878;2023-07-31T08:35:48;7.17;;;4.43;;
15082;SDS011;7640;53.116;6.878;2023-07-31T08:38:16;7.03;;;4.60;;
15082;SDS011;7640;53.116;6.878;2023-07-31T08:40:45;9.90;;;4.63;;
15082;SDS011;7640;53.116;6.878;2023-07-31T08:43:14;6.10;;;4.23;;
15082;SDS011;7640;53.116;6.878;2023-07-31T08:45:43;7.97;;;4.17;;
15082;SDS011;7640;53.116;6.878;2023-07-31T08:48:15;7.07;;;4.70;;
15082;SDS011;7640;53.116;6.878;2023-07-31T08:50:45;7.47;;;4.80;;
15082;SDS011;7640;53.116;6.878;2023-07-31T08:53:13;6.43;;;4.33;;
15082;SDS011;7640;53.116;6.878;2023-07-31T08:55:43;5.23;;;4.10;;
15082;SDS011;7640;53.116;6.878;2023-07-31T08:58:12;6.33;;;3.90;;
15082;SDS011;7640;53.116;6.878;2023-07-31T09:00:41;4.63;;;2.80;;
15082;SDS011;7640;53.116;6.878;2023-07-31T09:03:14;5.53;;;3.20;;
15082;SDS011;7640;53.116;6.878;2023-07-31T09:05:44;6.07;;;3.37;;
15082;SDS011;7640;53.116;6.878;2023-07-31T09:08:15;4.63;;;3.10;;
15082;SDS011;7640;53.116;6.878;2023-07-31T09:10:48;4.27;;;3.00;;
15082;SDS011;7640;53.116;6.878;2023-07-31T09:13:17;4.70;;;3.00;;
15082;SDS011;7640;53.116;6.878;2023-07-31T09:15:45;3.70;;;2.90;;
15082;SDS011;7640;53.116;6.878;2023-07-31T09:18:16;4.13;;;3.00;;
15082;SDS011;7640;53.116;6.878;2023-07-31T09:20:46;3.70;;;2.70;;
15082;SDS011;7640;53.116;6.878;2023-07-31T09:23:39;3.17;;;2.57;;
15082;SDS011;7640;53.116;6.878;2023-07-31T09:26:09;2.60;;;2.40;;
15082;SDS011;7640;53.116;6.878;2023-07-31T09:28:38;2.47;;;2.20;;
15082;SDS011;7640;53.116;6.878;2023-07-31T09:31:07;2.83;;;2.30;;
15082;SDS011;7640;53.116;6.878;2023-07-31T09:33:38;2.80;;;2.20;;
15082;SDS011;7640;53.116;6.878;2023-07-31T09:36:23;2.27;;;2.00;;
15082;SDS011;7640;53.116;6.878;2023-07-31T09:38:51;2.50;;;2.30;;
15082;SDS011;7640;53.116;6.878;2023-07-31T09:41:20;2.10;;;1.90;;
15082;SDS011;7640;53.116;6.878;2023-07-31T09:43:52;2.20;;;2.00;;
15082;SDS011;7640;53.116;6.878;2023-07-31T09:46:22;2.90;;;1.77;;
15082;SDS011;7640;53.116;6.878;2023-07-31T09:48:52;2.73;;;2.20;;
15082;SDS011;7640;53.116;6.878;2023-07-31T09:51:25;2.63;;;1.70;;
15082;SDS011;7640;53.116;6.878;2023-07-31T09:53:54;2.40;;;1.63;;
15082;SDS011;7640;53.116;6.878;2023-07-31T09:56:23;1.70;;;1.60;;
15082;SDS011;7640;53.116;6.878;2023-07-31T09:58:53;1.83;;;1.30;;
15082;SDS011;7640;53.116;6.878;2023-07-31T10:01:23;1.37;;;1.20;;
15082;SDS011;7640;53.116;6.878;2023-07-31T10:03:54;1.40;;;1.10;;
15082;SDS011;7640;53.116;6.878;2023-07-31T10:06:23;1.10;;;1.00;;
15082;SDS011;7640;53.116;6.878;2023-07-31T10:08:53;1.10;;;1.00;;
15082;SDS011;7640;53.116;6.878;2023-07-31T10:11:23;1.53;;;1.10;;
15082;SDS011;7640;53.116;6.878;2023-07-31T10:13:54;0.83;;;0.80;;
15082;SDS011;7640;53.116;6.878;2023-07-31T10:16:23;1.20;;;1.10;;
15082;SDS011;7640;53.116;6.878;2023-07-31T10:18:53;0.70;;;0.70;;
15082;SDS011;7640;53.116;6.878;2023-07-31T10:21:23;0.93;;;0.83;;
15082;SDS011;7640;53.116;6.878;2023-07-31T10:23:51;0.83;;;0.83;;
15082;SDS011;7640;53.116;6.878;2023-07-31T10:26:23;1.00;;;0.80;;
15082;SDS011;7640;53.116;6.878;2023-07-31T10:28:54;1.10;;;1.00;;
15082;SDS011;7640;53.116;6.878;2023-07-31T10:31:22;0.90;;;0.80;;
15082;SDS011;7640;53.116;6.878;2023-07-31T10:33:53;0.83;;;0.80;;
15082;SDS011;7640;53.116;6.878;2023-07-31T10:36:24;0.90;;;0.80;;
15082;SDS011;7640;53.116;6.878;2023-07-31T10:38:54;1.00;;;0.90;;
15082;SDS011;7640;53.116;6.878;2023-07-31T10:41:30;0.90;;;0.90;;
15082;SDS011;7640;53.116;6.878;2023-07-31T10:43:59;1.10;;;1.00;;
15082;SDS011;7640;53.116;6.878;2023-07-31T10:46:28;1.60;;;1.50;;
15082;SDS011;7640;53.116;6.878;2023-07-31T10:48:59;1.50;;;1.33;;
15082;SDS011;7640;53.116;6.878;2023-07-31T10:51:32;1.10;;;1.10;;
15082;SDS011;7640;53.116;6.878;2023-07-31T10:54:12;1.40;;;1.17;;
15082;SDS011;7640;53.116;6.878;2023-07-31T10:56:44;1.40;;;1.30;;
15082;SDS011;7640;53.116;6.878;2023-07-31T10:59:13;1.40;;;1.20;;
15082;SDS011;7640;53.116;6.878;2023-07-31T11:01:49;1.60;;;1.10;;
15082;SDS011;7640;53.116;6.878;2023-07-31T11:04:23;1.40;;;1.10;;
15082;SDS011;7640;53.116;6.878;2023-07-31T11:06:56;1.47;;;1.30;;
15082;SDS011;7640;53.116;6.878;2023-07-31T11:09:27;1.83;;;1.00;;
15082;SDS011;7640;53.116;6.878;2023-07-31T11:11:58;1.17;;;1.07;;
15082;SDS011;7640;53.116;6.878;2023-07-31T11:14:28;1.90;;;1.23;;
15082;SDS011;7640;53.116;6.878;2023-07-31T11:16:56;0.90;;;0.90;;
15082;SDS011;7640;53.116;6.878;2023-07-31T11:19:26;1.40;;;0.97;;
15082;SDS011;7640;53.116;6.878;2023-07-31T11:21:55;2.00;;;1.20;;
15082;SDS011;7640;53.116;6.878;2023-07-31T11:24:24;1.30;;;1.20;;
15082;SDS011;7640;53.116;6.878;2023-07-31T11:26:54;3.20;;;1.17;;
15082;SDS011;7640;53.116;6.878;2023-07-31T11:29:23;1.40;;;1.20;;
15082;SDS011;7640;53.116;6.878;2023-07-31T11:31:56;1.10;;;1.00;;
15082;SDS011;7640;53.116;6.878;2023-07-31T11:34:24;1.50;;;0.93;;
15082;SDS011;7640;53.116;6.878;2023-07-31T11:36:54;0.90;;;0.90;;
15082;SDS011;7640;53.116;6.878;2023-07-31T11:39:23;1.17;;;0.73;;
15082;SDS011;7640;53.116;6.878;2023-07-31T11:41:58;1.23;;;0.50;;
15082;SDS011;7640;53.116;6.878;2023-07-31T11:44:36;0.30;;;0.30;;
15082;SDS011;7640;53.116;6.878;2023-07-31T11:47:06;10.07;;;1.03;;
15082;SDS011;7640;53.116;6.878;2023-07-31T11:49:38;2.17;;;0.80;;
15082;SDS011;7640;53.116;6.878;2023-07-31T11:52:07;1.40;;;0.50;;
15082;SDS011;7640;53.116;6.878;2023-07-31T11:54:36;2.30;;;0.50;;
15082;SDS011;7640;53.116;6.878;2023-07-31T11:57:07;1.00;;;0.50;;
15082;SDS011;7640;53.116;6.878;2023-07-31T11:59:39;0.87;;;0.40;;
15082;SDS011;7640;53.116;6.878;2023-07-31T12:02:07;2.10;;;1.17;;
15082;SDS011;7640;53.116;6.878;2023-07-31T12:04:38;0.80;;;0.50;;
15082;SDS011;7640;53.116;6.878;2023-07-31T12:07:07;0.50;;;0.50;;
15082;SDS011;7640;53.116;6.878;2023-07-31T12:09:35;0.70;;;0.50;;
15082;SDS011;7640;53.116;6.878;2023-07-31T12:12:07;0.40;;;0.40;;
15082;SDS011;7640;53.116;6.878;2023-07-31T12:14:36;0.40;;;0.30;;
15082;SDS011;7640;53.116;6.878;2023-07-31T12:17:10;1.03;;;0.67;;
15082;SDS011;7640;53.116;6.878;2023-07-31T12:19:40;0.63;;;0.63;;
15082;SDS011;7640;53.116;6.878;2023-07-31T12:22:12;0.60;;;0.60;;
15082;SDS011;7640;53.116;6.878;2023-07-31T12:24:49;0.70;;;0.70;;
15082;SDS011;7640;53.116;6.878;2023-07-31T12:27:22;0.73;;;0.70;;
15082;SDS011;7640;53.116;6.878;2023-07-31T12:29:52;1.10;;;0.80;;
15082;SDS011;7640;53.116;6.878;2023-07-31T12:32:21;1.20;;;1.10;;
15082;SDS011;7640;53.116;6.878;2023-07-31T12:34:53;1.20;;;1.10;;
15082;SDS011;7640;53.116;6.878;2023-07-31T12:37:22;1.10;;;1.00;;
15082;SDS011;7640;53.116;6.878;2023-07-31T12:39:50;1.20;;;1.10;;
15082;SDS011;7640;53.116;6.878;2023-07-31T12:42:19;1.50;;;1.20;;
15082;SDS011;7640;53.116;6.878;2023-07-31T12:44:47;2.20;;;1.37;;
15082;SDS011;7640;53.116;6.878;2023-07-31T12:47:16;3.23;;;1.40;;
15082;SDS011;7640;53.116;6.878;2023-07-31T12:49:44;5.87;;;2.10;;
15082;SDS011;7640;53.116;6.878;2023-07-31T12:52:14;2.57;;;2.10;;
15082;SDS011;7640;53.116;6.878;2023-07-31T12:54:44;5.73;;;2.07;;
15082;SDS011;7640;53.116;6.878;2023-07-31T12:57:12;2.47;;;1.83;;
15082;SDS011;7640;53.116;6.878;2023-07-31T12:59:41;2.87;;;1.80;;
15082;SDS011;7640;53.116;6.878;2023-07-31T13:02:09;3.03;;;2.10;;
15082;SDS011;7640;53.116;6.878;2023-07-31T13:04:38;3.37;;;1.97;;
15082;SDS011;7640;53.116;6.878;2023-07-31T13:07:07;3.20;;;2.20;;
15082;SDS011;7640;53.116;6.878;2023-07-31T13:09:36;6.13;;;2.53;;
15082;SDS011;7640;53.116;6.878;2023-07-31T13:12:05;3.83;;;2.60;;
15082;SDS011;7640;53.116;6.878;2023-07-31T13:14:35;3.03;;;2.17;;
15082;SDS011;7640;53.116;6.878;2023-07-31T13:17:04;3.43;;;2.43;;
15082;SDS011;7640;53.116;6.878;2023-07-31T13:19:33;2.40;;;2.20;;
15082;SDS011;7640;53.116;6.878;2023-07-31T13:22:02;3.50;;;2.23;;
15082;SDS011;7640;53.116;6.878;2023-07-31T13:24:35;2.87;;;2.30;;
15082;SDS011;7640;53.116;6.878;2023-07-31T13:27:05;4.57;;;2.53;;
15082;SDS011;7640;53.116;6.878;2023-07-31T13:29:34;5.53;;;3.30;;
15082;SDS011;7640;53.116;6.878;2023-07-31T13:32:03;4.60;;;3.00;;
15082;SDS011;7640;53.116;6.878;2023-07-31T13:34:33;4.27;;;3.00;;
15082;SDS011;7640;53.116;6.878;2023-07-31T13:37:03;4.80;;;3.40;;
15082;SDS011;7640;53.116;6.878;2023-07-31T13:39:32;4.53;;;3.63;;
15082;SDS011;7640;53.116;6.878;2023-07-31T13:42:03;5.47;;;3.27;;
15082;SDS011;7640;53.116;6.878;2023-07-31T13:44:33;5.60;;;3.63;;
15082;SDS011;7640;53.116;6.878;2023-07-31T13:47:02;5.83;;;3.80;;
15082;SDS011;7640;53.116;6.878;2023-07-31T13:49:31;5.87;;;3.43;;
15082;SDS011;7640;53.116;6.878;2023-07-31T13:52:00;4.87;;;3.47;;
15082;SDS011;7640;53.116;6.878;2023-07-31T13:54:29;6.10;;;3.90;;
15082;SDS011;7640;53.116;6.878;2023-07-31T13:56:58;10.10;;;4.33;;
15082;SDS011;7640;53.116;6.878;2023-07-31T13:59:29;6.37;;;3.90;;
15082;SDS011;7640;53.116;6.878;2023-07-31T14:01:57;5.33;;;4.23;;
15082;SDS011;7640;53.116;6.878;2023-07-31T14:04:26;7.23;;;4.50;;
15082;SDS011;7640;53.116;6.878;2023-07-31T14:06:55;5.03;;;4.20;;
15082;SDS011;7640;53.116;6.878;2023-07-31T14:09:25;8.97;;;4.70;;
15082;SDS011;7640;53.116;6.878;2023-07-31T14:11:54;7.63;;;4.67;;
15082;SDS011;7640;53.116;6.878;2023-07-31T14:14:23;7.30;;;4.20;;
15082;SDS011;7640;53.116;6.878;2023-07-31T14:16:53;8.20;;;4.57;;
15082;SDS011;7640;53.116;6.878;2023-07-31T14:19:22;10.60;;;5.20;;
15082;SDS011;7640;53.116;6.878;2023-07-31T14:21:52;7.07;;;4.53;;
15082;SDS011;7640;53.116;6.878;2023-07-31T14:24:37;6.73;;;4.20;;
15082;SDS011;7640;53.116;6.878;2023-07-31T14:27:05;6.00;;;4.33;;
15082;SDS011;7640;53.116;6.878;2023-07-31T14:29:35;9.43;;;4.30;;
15082;SDS011;7640;53.116;6.878;2023-07-31T14:32:05;7.30;;;4.20;;
15082;SDS011;7640;53.116;6.878;2023-07-31T14:34:35;8.77;;;4.20;;
15082;SDS011;7640;53.116;6.878;2023-07-31T14:37:04;8.43;;;4.57;;
15082;SDS011;7640;53.116;6.878;2023-07-31T14:39:33;6.07;;;4.60;;
15082;SDS011;7640;53.116;6.878;2023-07-31T14:42:06;7.10;;;4.50;;
15082;SDS011;7640;53.116;6.878;2023-07-31T14:44:35;8.77;;;4.97;;
15082;SDS011;7640;53.116;6.878;2023-07-31T14:47:05;9.03;;;4.73;;
15082;SDS011;7640;53.116;6.878;2023-07-31T14:49:33;9.38;;;4.20;;
15082;SDS011;7640;53.116;6.878;2023-07-31T14:52:02;7.73;;;4.73;;
15082;SDS011;7640;53.116;6.878;2023-07-31T14:54:31;6.80;;;4.20;;
15082;SDS011;7640;53.116;6.878;2023-07-31T14:57:02;8.57;;;4.97;;
15082;SDS011;7640;53.116;6.878;2023-07-31T14:59:32;9.90;;;4.97;;
15082;SDS011;7640;53.116;6.878;2023-07-31T15:02:01;10.93;;;5.40;;
15082;SDS011;7640;53.116;6.878;2023-07-31T15:04:32;8.70;;;4.93;;
15082;SDS011;7640;53.116;6.878;2023-07-31T15:07:02;8.33;;;4.60;;
15082;SDS011;7640;53.116;6.878;2023-07-31T15:09:31;7.40;;;4.57;;
15082;SDS011;7640;53.116;6.878;2023-07-31T15:12:00;8.73;;;4.30;;
15082;SDS011;7640;53.116;6.878;2023-07-31T15:14:29;5.50;;;4.20;;
15082;SDS011;7640;53.116;6.878;2023-07-31T15:16:59;9.30;;;4.30;;